Estações Meteorológicas Convencionais MB

Calcanhar
Data Hora VISIB (KM) Cobertura(OITAVOS) DD Vento(º) Intensidade (NÓS) TEMP DO AR (º) Temp do Ponto de Orvalho(ºC) Pressão (hPa) TEMP MAX (ºC) TEMP MIN (ºC)
30/05/2020 06:00 4/10 120 8 25.00 22.20 1014.20
30/05/2020 00:00 4/10 180 12 25.00 22.20 1014.70 31.00
29/05/2020 18:00 20/50 6 180 15 29.00 26.40 1012.20
29/05/2020 12:00 10/20 8 150 8 26.00 24.70 1014.90 25.00
28/05/2020 06:00 4/10 170 3 26.00 24.70 1013.20
28/05/2020 00:00 4/10 80 8 28.00 25.30 1014.70 30.00
27/05/2020 18:00 20/50 2 90 6 30.00 26.10 1012.70
27/05/2020 12:00 20/50 4 100 5 31.00 26.10 1015.50 27.00
27/05/2020 06:00 4/10 140 5 27.00 24.30 1014.70
27/05/2020 00:00 4/10 100 2 28.00 25.30 1015.20 32.00
26/05/2020 18:00 20/50 1 80 8 30.00 26.10 1014.20
26/05/2020 12:00 20/50 3 130 5 31.00 25.70 1016.20 25.00
26/05/2020 06:00 4/10 140 3 26.00 24.70 1014.00
26/05/2020 06:00 4/10 140 3 26.00 24.70 1014.00
24/05/2020 06:00 4/10 190 4 25.00 23.60 1014.40
25/05/2020 00:00 4/10 120 8 26.00 24.70 1015.20 27.00
23/05/2020 18:00 4/10 8 210 7 25.00 23.60 1014.70
23/05/2020 12:00 20/50 8 190 10 27.00 24.32 1016.20 25.00
22/05/2020 18:00 20/50 8 120 10 28.00 26.70 1013.20
22/05/2020 12:00 10/20 8 160 10 27.00 25.70 1015.90 25.00
20/05/2020 06:00 4/10 180 5 26.00 24.70 1013.80
20/05/2020 00:00 4/10 130 7 28.00 26.70 1015.20 32.00
19/05/2020 18:00 20/50 2 160 13 31.00 28.40 1012.90
19/05/2020 12:00 20/50 3 150 11 30.00 27.40 1016.20 26.00
18/05/2020 00:00 4/10 150 8 26.00 24.70 1014.20 32.00
17/05/2020 18:00 20/50 3 150 9 32.00 28.20 1014.70
17/05/2020 12:00 20/50 3 120 8 29.00 26.40 1015.50 26.00
16/05/2020 06:00 4/10 100 7 26.00 24.70 1012.20
16/05/2020 00:00 4/10 150 5 26.00 24.70 1013.70 29.00
15/05/2020 12:00 20/50 8 270 3 26.00 24.70 1016.10 25.00
15/05/2020 06:00 4/10 150 6 26.00 24.70 1012.70
15/05/2020 00:00 4/10 100 10 26.00 24.70 1014.70 31.00
14/05/2020 18:00 20/50 4 120 14 30.00 27.40 1011.50
14/05/2020 12:00 20/50 8 180 10 29.00 26.40 1014.90 25.00
14/05/2020 06:00 4/10 120 8 26.00 24.70 1013.20
11/05/2020 06:00 4/10 170 11 25.00 23.60 1013.70
11/05/2020 00:00 4/10 170 7 27.00 24.30 1015.40 31.00
10/05/2020 18:00 20/50 3 130 12 30.00 26.10 1013.40
10/05/2020 12:00 20/50 3 120 10 30.00 26.10 1016.90 24.00
10/05/2020 00:00 4/10 180 7 25.00 23.60 1016.00 28.00
09/05/2020 18:00 20/50 2 30 22 22.00 18.50 1020.20
09/05/2020 12:00 20/50 8 110 8 28.00 25.30 1016.30 25.00
06/05/2020 06:00 4/10 170 6 25.00 23.60 1012.70
06/05/2020 06:00 4/10 170 6 25.00 23.60 1012.70
06/05/2020 00:00 10/20 150 11 27.00 24.30 1013.80 31.00
05/05/2020 12:00 20/50 4 120 16 31.00 25.70 1011.20
05/05/2020 12:00 20/50 4 150 12 30.00 26.10 1013.60 25.00
03/05/2020 06:00 4/10 160 5 26.00 24.70 1012.70
03/05/2020 00:00 4/10 160 9 27.00 24.30 1015.20 32.00
02/05/2020 18:00 20/50 4 160 12 31.00 27.10 1012.40
02/05/2020 12:00 20/50 8 140 9 29.00 26.40 1015.50 25.00
01/05/2020 00:00 10/20 140 12 29.00 25.00 1015.20 31.00
30/04/2020 18:00 20/50 5 120 14 31.00 27.10 1012.70
30/04/2020 12:00 20/50 3 120 12 31.00 25.70 1015.30 24.00
30/04/2020 00:00 4/10 150 9 25.00 23.60 1015.70 28.00
29/04/2020 18:00 20/50 8 130 13 29.00 25.00 1012.90
29/04/2020 12:00 20/50 7 150 10 27.00 24.30 1015.90 25.00
27/04/2020 06:00 4/10 150 8 25.00 23.60 1013.20
27/04/2020 00:00 4/10 140 5 296.00 24.70 1012.70 29.00
26/04/2020 18:00 20/50 8 100 12 28.00 24.00 1012.20
26/04/2020 12:00 20/50 6 170 10 29.00 26.40 1012.60 26.00
26/04/2020 06:00 4/10 210 8 26.00 24.70 1012.70
25/04/2020 18:00 20/50 8 160 9 29.00 23.60 1011.20
25/04/2020 12:00 20/50 6 160 8 28.00 25.30 1015.00 25.00
23/04/2020 06:00 4/10 100 11 27.00 24.30 1013.00
23/04/2020 00:00 4/10 100 12 28.00 24.00 1013.20 32.00
22/04/2020 18:00 20/50 5 120 10 31.00 25.70 1011.20
22/04/2020 12:00 20/50 7 170 4 29.00 25.00 1014.90 25.00
21/04/2020 06:00 4/10 170 6 25.00 23.60 1013.20
21/04/2020 00:00 4/10 150 11 28.00 25.30 1013.70 33.00
20/04/2020 18:00 20/50 2 150 10 31.00 27.10 1011.20
20/04/2020 12:00 20/50 3 180 8 31.00 25.70 1014.70 25.00
19/04/2020 00:00 4/10 290 2 28.00 25.30 1015.70 31.00
18/04/2020 18:00 20/50 4 20 6 30.00 26.10 1013.20
18/04/2020 12:00 20/50 5 150 5 30.00 26.10 1016.10 25.00
18/04/2020 00:00 4/10 60 5 28.00 25.30 1015.40 30.00
17/04/2020 18:00 20/50 5 100 9 29.00 26.40 1012.80
17/04/2020 12:00 20/50 5 80 7 32.00 26.80 1015.50 25.00
15/04/2020 06:00 4/10 170 6 27.00 25.70 1011.20
14/04/2020 18:00 20/50 6 90 11 30.00 27.40 1010.10
14/04/2020 12:00 20/50 5 110 8 31.00 27.10 1013.00 26.00
14/04/2020 06:00 4/10 190 5 26.00 24.70 1013.20
14/04/2020 00:00 4/10 120 8 28.00 25.30 1012.70 34.00
13/04/2020 18:00 20/50 2 120 10 32.00 26.80 1010.20
13/04/2020 12:00 20/50 3 150 10 32.00 26.80 1014.40 26.00
13/04/2020 06:00 4/10 200 8 27.00 25.70 1012.70
11/04/2020 06:00 4/10 130 7 27.00 25.70 1012.50
11/04/2020 00:00 4/10 110 9 28.00 26.70 1013.70 32.00
10/04/2020 18:00 20/50 5 130 10 31.00 27.10 1011.80
10/04/2020 12:00 20/50 8 140 9 27.00 25.70 1014.40 26.00
08/04/2020 06:00 4/10 190 7 27.00 25.70 1011.70
08/04/2020 00:00 10/20 140 8 29.00 25.00 1013.70 33.00
07/04/2020 18:00 20/50 6 120 9 31.00 27.10 1011.70
07/04/2020 12:00 20/50 6 140 11 29.00 27.70 1014.10 28.00
07/04/2020 06:00 4/10 100 10 28.00 25.30 1012.70
07/04/2020 00:00 4/10 150 10 29.00 26.40 1014.40 33.00
06/04/2020 18:00 20/50 2 120 12 33.00 27.90 1012.20
06/04/2020 12:00 20/50 4 120 10 33.00 27.90 1015.40 27.00
06/04/2020 06:00 4/10 120 8 28.00 25.30 1012.90
06/04/2020 00:00 4/10 110 7 29.00 27.70 1014.40 32.00